Arkansaw, Wisconsin
Current Conditions -  °F | °C
As of 6:35 PM on Friday 31 Oct 2014 (Local Time) from KLUM Reporting Station
Clear Clear  
Wind Chill: 35°   Ceiling: Unl
Heat Index: 35°   Visibility: 10mi
Dew Point: 18°   Wind: 3mph
Humidity: 51%   Direction: 320°NW
Pressure: 30.48"   Gusts: NA
Location:  44.63°N, 92.03°W
Report Text: KLUM 312335Z AUTO 32003KT 10SM CLR 01/M08 A3048 RMK AO2 T00141077
Loading
Personal Weather Stations






























Interactive Weather Map
Tropical Storm Tracking
New forecast layout! Learn more

10-Day Weather Forecast

Advertisements
Track Severe Weather on mobile